sensor_id;sensor_type;location;lat;lon;timestamp;temperature;humidity
60313;DHT22;46158;52.850;6.970;2023-04-01T00:00:36;15.60;75.50
60313;DHT22;46158;52.850;6.970;2023-04-01T00:03:02;15.70;75.40
60313;DHT22;46158;52.850;6.970;2023-04-01T00:05:27;15.60;75.40
60313;DHT22;46158;52.850;6.970;2023-04-01T00:07:53;15.60;75.40
60313;DHT22;46158;52.850;6.970;2023-04-01T00:10:22;15.60;75.40
60313;DHT22;46158;52.850;6.970;2023-04-01T00:12:48;15.60;75.30
60313;DHT22;46158;52.850;6.970;2023-04-01T00:15:14;15.60;75.30
60313;DHT22;46158;52.850;6.970;2023-04-01T00:17:39;15.60;75.20
60313;DHT22;46158;52.850;6.970;2023-04-01T00:20:06;15.60;75.20
60313;DHT22;46158;52.850;6.970;2023-04-01T00:22:33;15.60;75.20
60313;DHT22;46158;52.850;6.970;2023-04-01T00:24:59;15.60;75.20
60313;DHT22;46158;52.850;6.970;2023-04-01T00:27:25;15.60;75.20
60313;DHT22;46158;52.850;6.970;2023-04-01T00:29:51;15.60;75.20
60313;DHT22;46158;52.850;6.970;2023-04-01T00:32:17;15.60;75.10
60313;DHT22;46158;52.850;6.970;2023-04-01T00:34:43;15.60;75.10
60313;DHT22;46158;52.850;6.970;2023-04-01T00:37:10;15.60;75.00
60313;DHT22;46158;52.850;6.970;2023-04-01T00:39:37;15.50;75.00
60313;DHT22;46158;52.850;6.970;2023-04-01T00:42:04;15.50;75.00
60313;DHT22;46158;52.850;6.970;2023-04-01T00:44:32;15.50;74.90
60313;DHT22;46158;52.850;6.970;2023-04-01T00:46:59;15.50;75.00
60313;DHT22;46158;52.850;6.970;2023-04-01T00:49:51;15.50;74.90
60313;DHT22;46158;52.850;6.970;2023-04-01T00:52:24;15.50;74.70
60313;DHT22;46158;52.850;6.970;2023-04-01T00:54:56;15.50;74.80
60313;DHT22;46158;52.850;6.970;2023-04-01T00:57:32;15.50;74.90
60313;DHT22;46158;52.850;6.970;2023-04-01T01:00:00;15.50;74.70
60313;DHT22;46158;52.850;6.970;2023-04-01T01:02:25;15.50;74.80
60313;DHT22;46158;52.850;6.970;2023-04-01T01:04:51;15.50;74.80
60313;DHT22;46158;52.850;6.970;2023-04-01T01:10:12;15.50;74.70
60313;DHT22;46158;52.850;6.970;2023-04-01T01:15:29;15.50;74.70
60313;DHT22;46158;52.850;6.970;2023-04-01T01:24:12;15.40;74.40
60313;DHT22;46158;52.850;6.970;2023-04-01T01:35:33;15.40;74.60
60313;DHT22;46158;52.850;6.970;2023-04-01T01:37:27;15.40;74.50
60313;DHT22;46158;52.850;6.970;2023-04-01T01:39:58;15.30;74.40
60313;DHT22;46158;52.850;6.970;2023-04-01T01:42:27;15.40;74.40
60313;DHT22;46158;52.850;6.970;2023-04-01T01:44:56;15.40;74.40
60313;DHT22;46158;52.850;6.970;2023-04-01T01:47:25;15.40;74.40
60313;DHT22;46158;52.850;6.970;2023-04-01T01:49:53;15.30;74.30
60313;DHT22;46158;52.850;6.970;2023-04-01T01:52:19;15.30;74.30
60313;DHT22;46158;52.850;6.970;2023-04-01T01:54:50;15.30;74.30
60313;DHT22;46158;52.850;6.970;2023-04-01T01:57:19;15.30;74.20
60313;DHT22;46158;52.850;6.970;2023-04-01T01:59:46;15.30;74.20
60313;DHT22;46158;52.850;6.970;2023-04-01T02:02:13;15.30;74.20
60313;DHT22;46158;52.850;6.970;2023-04-01T02:04:42;15.30;74.20
60313;DHT22;46158;52.850;6.970;2023-04-01T02:07:19;15.30;74.20
60313;DHT22;46158;52.850;6.970;2023-04-01T02:09:47;15.30;74.20
60313;DHT22;46158;52.850;6.970;2023-04-01T02:12:15;15.30;74.20
60313;DHT22;46158;52.850;6.970;2023-04-01T02:15:03;15.30;74.20
60313;DHT22;46158;52.850;6.970;2023-04-01T02:17:31;15.30;74.00
60313;DHT22;46158;52.850;6.970;2023-04-01T02:20:13;15.30;74.20
60313;DHT22;46158;52.850;6.970;2023-04-01T02:22:48;15.30;74.10
60313;DHT22;46158;52.850;6.970;2023-04-01T02:25:19;15.30;74.20
60313;DHT22;46158;52.850;6.970;2023-04-01T02:27:47;15.20;74.00
60313;DHT22;46158;52.850;6.970;2023-04-01T02:30:15;15.20;74.00
60313;DHT22;46158;52.850;6.970;2023-04-01T02:32:41;15.30;74.10
60313;DHT22;46158;52.850;6.970;2023-04-01T02:35:10;15.20;74.20
60313;DHT22;46158;52.850;6.970;2023-04-01T02:37:38;15.20;74.20
60313;DHT22;46158;52.850;6.970;2023-04-01T02:40:06;15.20;74.20
60313;DHT22;46158;52.850;6.970;2023-04-01T02:42:33;15.20;74.10
60313;DHT22;46158;52.850;6.970;2023-04-01T02:44:59;15.20;74.10
60313;DHT22;46158;52.850;6.970;2023-04-01T02:47:25;15.20;74.10
60313;DHT22;46158;52.850;6.970;2023-04-01T02:49:51;15.20;74.00
60313;DHT22;46158;52.850;6.970;2023-04-01T02:52:23;15.20;74.10
60313;DHT22;46158;52.850;6.970;2023-04-01T02:54:49;15.20;74.00
60313;DHT22;46158;52.850;6.970;2023-04-01T02:57:15;15.10;74.00
60313;DHT22;46158;52.850;6.970;2023-04-01T02:59:40;15.10;74.00
60313;DHT22;46158;52.850;6.970;2023-04-01T03:02:06;15.10;74.00
60313;DHT22;46158;52.850;6.970;2023-04-01T03:04:32;15.10;73.90
60313;DHT22;46158;52.850;6.970;2023-04-01T03:06:58;15.10;73.90
60313;DHT22;46158;52.850;6.970;2023-04-01T03:09:23;15.10;73.90
60313;DHT22;46158;52.850;6.970;2023-04-01T03:11:49;15.10;73.90
60313;DHT22;46158;52.850;6.970;2023-04-01T03:14:15;15.20;73.90
60313;DHT22;46158;52.850;6.970;2023-04-01T03:16:40;15.10;73.90
60313;DHT22;46158;52.850;6.970;2023-04-01T03:19:06;15.10;73.90
60313;DHT22;46158;52.850;6.970;2023-04-01T03:21:32;15.10;73.80
60313;DHT22;46158;52.850;6.970;2023-04-01T03:23:57;15.10;73.90
60313;DHT22;46158;52.850;6.970;2023-04-01T03:26:24;15.10;73.80
60313;DHT22;46158;52.850;6.970;2023-04-01T03:28:52;15.10;73.80
60313;DHT22;46158;52.850;6.970;2023-04-01T03:31:18;15.10;73.80
60313;DHT22;46158;52.850;6.970;2023-04-01T03:33:45;15.10;73.80
60313;DHT22;46158;52.850;6.970;2023-04-01T03:36:10;15.10;73.80
60313;DHT22;46158;52.850;6.970;2023-04-01T03:38:39;15.10;73.80
60313;DHT22;46158;52.850;6.970;2023-04-01T03:41:05;15.10;73.80
60313;DHT22;46158;52.850;6.970;2023-04-01T03:43:31;15.00;73.70
60313;DHT22;46158;52.850;6.970;2023-04-01T03:45:57;15.00;73.70
60313;DHT22;46158;52.850;6.970;2023-04-01T03:48:24;15.00;73.70
60313;DHT22;46158;52.850;6.970;2023-04-01T03:50:51;15.00;73.70
60313;DHT22;46158;52.850;6.970;2023-04-01T03:53:17;15.00;73.70
60313;DHT22;46158;52.850;6.970;2023-04-01T03:55:43;15.00;74.40
60313;DHT22;46158;52.850;6.970;2023-04-01T03:58:09;15.00;73.70
60313;DHT22;46158;52.850;6.970;2023-04-01T04:00:34;15.00;73.70
60313;DHT22;46158;52.850;6.970;2023-04-01T04:03:01;15.00;73.70
60313;DHT22;46158;52.850;6.970;2023-04-01T04:05:27;15.00;73.70
60313;DHT22;46158;52.850;6.970;2023-04-01T04:07:53;15.00;73.70
60313;DHT22;46158;52.850;6.970;2023-04-01T04:10:20;15.00;73.70
60313;DHT22;46158;52.850;6.970;2023-04-01T04:12:49;15.00;73.70
60313;DHT22;46158;52.850;6.970;2023-04-01T04:15:14;15.00;73.70
60313;DHT22;46158;52.850;6.970;2023-04-01T04:17:40;14.90;73.60
60313;DHT22;46158;52.850;6.970;2023-04-01T04:20:07;14.90;73.60
60313;DHT22;46158;52.850;6.970;2023-04-01T04:22:33;14.90;73.60
60313;DHT22;46158;52.850;6.970;2023-04-01T04:24:59;14.90;73.60
60313;DHT22;46158;52.850;6.970;2023-04-01T04:27:25;14.90;73.60
60313;DHT22;46158;52.850;6.970;2023-04-01T04:29:51;14.90;73.60
60313;DHT22;46158;52.850;6.970;2023-04-01T04:32:16;14.90;73.60
60313;DHT22;46158;52.850;6.970;2023-04-01T04:34:42;14.90;73.60
60313;DHT22;46158;52.850;6.970;2023-04-01T04:37:08;14.90;73.60
60313;DHT22;46158;52.850;6.970;2023-04-01T04:39:34;14.90;73.60
60313;DHT22;46158;52.850;6.970;2023-04-01T04:41:59;14.90;73.60
60313;DHT22;46158;52.850;6.970;2023-04-01T04:44:25;14.90;73.60
60313;DHT22;46158;52.850;6.970;2023-04-01T04:46:51;14.90;73.60
60313;DHT22;46158;52.850;6.970;2023-04-01T04:49:17;14.80;73.50
60313;DHT22;46158;52.850;6.970;2023-04-01T04:51:43;14.80;73.60
60313;DHT22;46158;52.850;6.970;2023-04-01T04:54:10;14.80;73.60
60313;DHT22;46158;52.850;6.970;2023-04-01T04:56:36;14.80;73.50
60313;DHT22;46158;52.850;6.970;2023-04-01T04:59:02;14.80;73.60
60313;DHT22;46158;52.850;6.970;2023-04-01T05:01:27;14.80;73.60
60313;DHT22;46158;52.850;6.970;2023-04-01T05:03:53;14.80;73.50
60313;DHT22;46158;52.850;6.970;2023-04-01T05:06:19;14.80;73.50
60313;DHT22;46158;52.850;6.970;2023-04-01T05:08:45;14.80;73.60
60313;DHT22;46158;52.850;6.970;2023-04-01T05:11:14;14.80;73.60
60313;DHT22;46158;52.850;6.970;2023-04-01T05:13:40;14.80;73.60
60313;DHT22;46158;52.850;6.970;2023-04-01T05:16:11;14.80;73.70
60313;DHT22;46158;52.850;6.970;2023-04-01T05:18:37;14.80;73.60
60313;DHT22;46158;52.850;6.970;2023-04-01T05:21:03;14.80;73.70
60313;DHT22;46158;52.850;6.970;2023-04-01T05:23:31;14.80;73.70
60313;DHT22;46158;52.850;6.970;2023-04-01T05:25:57;14.80;73.70
60313;DHT22;46158;52.850;6.970;2023-04-01T05:28:22;14.80;73.80
60313;DHT22;46158;52.850;6.970;2023-04-01T05:30:48;14.80;73.80
60313;DHT22;46158;52.850;6.970;2023-04-01T05:33:24;14.80;73.80
60313;DHT22;46158;52.850;6.970;2023-04-01T05:35:50;14.80;73.90
60313;DHT22;46158;52.850;6.970;2023-04-01T05:38:24;14.80;73.90
60313;DHT22;46158;52.850;6.970;2023-04-01T05:40:50;14.80;73.90
60313;DHT22;46158;52.850;6.970;2023-04-01T05:43:15;14.80;74.00
60313;DHT22;46158;52.850;6.970;2023-04-01T05:45:41;14.80;74.00
60313;DHT22;46158;52.850;6.970;2023-04-01T05:48:07;14.80;74.20
60313;DHT22;46158;52.850;6.970;2023-04-01T05:50:40;14.80;74.20
60313;DHT22;46158;52.850;6.970;2023-04-01T05:53:07;14.90;74.40
60313;DHT22;46158;52.850;6.970;2023-04-01T05:55:35;14.80;74.40
60313;DHT22;46158;52.850;6.970;2023-04-01T05:58:01;14.80;74.50
60313;DHT22;46158;52.850;6.970;2023-04-01T06:00:27;14.80;74.60
60313;DHT22;46158;52.850;6.970;2023-04-01T06:02:59;14.80;74.70
60313;DHT22;46158;52.850;6.970;2023-04-01T06:05:44;14.80;74.80
60313;DHT22;46158;52.850;6.970;2023-04-01T06:08:16;14.90;75.00
60313;DHT22;46158;52.850;6.970;2023-04-01T06:10:52;14.80;75.10
60313;DHT22;46158;52.850;6.970;2023-04-01T06:19:24;14.90;75.50
60313;DHT22;46158;52.850;6.970;2023-04-01T06:35:42;15.00;75.90
60313;DHT22;46158;52.850;6.970;2023-04-01T06:41:13;14.90;75.90
60313;DHT22;46158;52.850;6.970;2023-04-01T06:46:51;15.00;76.20
60313;DHT22;46158;52.850;6.970;2023-04-01T06:55:32;15.00;76.20
60313;DHT22;46158;52.850;6.970;2023-04-01T06:58:05;14.90;76.40
60313;DHT22;46158;52.850;6.970;2023-04-01T07:00:36;14.90;76.20
60313;DHT22;46158;52.850;6.970;2023-04-01T07:05:48;14.90;76.40
60313;DHT22;46158;52.850;6.970;2023-04-01T07:08:23;14.90;76.50
60313;DHT22;46158;52.850;6.970;2023-04-01T07:10:58;14.90;76.50
60313;DHT22;46158;52.850;6.970;2023-04-01T07:13:46;14.90;76.70
60313;DHT22;46158;52.850;6.970;2023-04-01T07:21:49;14.90;76.90
60313;DHT22;46158;52.850;6.970;2023-04-01T07:24:36;15.00;77.00
60313;DHT22;46158;52.850;6.970;2023-04-01T07:27:05;15.00;77.20
60313;DHT22;46158;52.850;6.970;2023-04-01T07:29:37;14.90;77.20
60313;DHT22;46158;52.850;6.970;2023-04-01T07:51:34;14.90;77.10
60313;DHT22;46158;52.850;6.970;2023-04-01T07:54:21;15.00;77.20
60313;DHT22;46158;52.850;6.970;2023-04-01T08:00:24;15.00;77.30
60313;DHT22;46158;52.850;6.970;2023-04-01T08:05:46;14.90;77.10
60313;DHT22;46158;52.850;6.970;2023-04-01T08:08:29;14.90;77.10
60313;DHT22;46158;52.850;6.970;2023-04-01T08:11:36;14.90;77.10
60313;DHT22;46158;52.850;6.970;2023-04-01T08:22:40;14.90;77.20
60313;DHT22;46158;52.850;6.970;2023-04-01T08:25:08;14.90;77.20
60313;DHT22;46158;52.850;6.970;2023-04-01T08:27:37;14.90;77.40
60313;DHT22;46158;52.850;6.970;2023-04-01T08:30:24;14.90;77.30
60313;DHT22;46158;52.850;6.970;2023-04-01T08:32:56;14.90;77.40
60313;DHT22;46158;52.850;6.970;2023-04-01T08:35:54;14.90;77.40
60313;DHT22;46158;52.850;6.970;2023-04-01T08:38:37;14.90;77.60
60313;DHT22;46158;52.850;6.970;2023-04-01T08:41:32;14.90;77.60
60313;DHT22;46158;52.850;6.970;2023-04-01T09:15:30;14.90;78.50
60313;DHT22;46158;52.850;6.970;2023-04-01T09:32:33;14.80;78.60
60313;DHT22;46158;52.850;6.970;2023-04-01T09:38:18;14.80;78.70
60313;DHT22;46158;52.850;6.970;2023-04-01T09:40:55;14.90;78.80
60313;DHT22;46158;52.850;6.970;2023-04-01T09:43:49;14.80;78.80
60313;DHT22;46158;52.850;6.970;2023-04-01T09:46:47;14.90;78.90
60313;DHT22;46158;52.850;6.970;2023-04-01T10:18:33;14.90;79.50
60313;DHT22;46158;52.850;6.970;2023-04-01T10:21:25;14.90;79.60
60313;DHT22;46158;52.850;6.970;2023-04-01T10:44:09;14.90;79.50
60313;DHT22;46158;52.850;6.970;2023-04-01T10:52:17;14.90;79.50
60313;DHT22;46158;52.850;6.970;2023-04-01T10:55:27;14.90;79.50
60313;DHT22;46158;52.850;6.970;2023-04-01T10:58:10;14.90;79.60
60313;DHT22;46158;52.850;6.970;2023-04-01T11:18:37;14.90;79.50
60313;DHT22;46158;52.850;6.970;2023-04-01T11:29:49;14.90;79.40
60313;DHT22;46158;52.850;6.970;2023-04-01T11:40:35;14.80;79.20
60313;DHT22;46158;52.850;6.970;2023-04-01T11:45:50;14.80;79.20
60313;DHT22;46158;52.850;6.970;2023-04-01T12:00:22;14.80;79.10
60313;DHT22;46158;52.850;6.970;2023-04-01T12:19:26;14.90;79.50
60313;DHT22;46158;52.850;6.970;2023-04-01T12:39:08;14.90;79.20
60313;DHT22;46158;52.850;6.970;2023-04-01T12:50:16;14.90;79.10
60313;DHT22;46158;52.850;6.970;2023-04-01T12:53:07;14.90;79.10
60313;DHT22;46158;52.850;6.970;2023-04-01T12:55:56;14.90;79.00
60313;DHT22;46158;52.850;6.970;2023-04-01T13:07:51;14.90;78.90
60313;DHT22;46158;52.850;6.970;2023-04-01T13:16:02;14.90;79.00
60313;DHT22;46158;52.850;6.970;2023-04-01T13:18:38;14.90;79.00
60313;DHT22;46158;52.850;6.970;2023-04-01T13:21:56;14.90;79.00
60313;DHT22;46158;52.850;6.970;2023-04-01T13:27:16;14.90;79.00
60313;DHT22;46158;52.850;6.970;2023-04-01T13:29:46;15.00;79.10
60313;DHT22;46158;52.850;6.970;2023-04-01T13:40:49;15.00;79.20
60313;DHT22;46158;52.850;6.970;2023-04-01T13:49:13;15.00;79.50
60313;DHT22;46158;52.850;6.970;2023-04-01T14:09:14;15.10;79.80
60313;DHT22;46158;52.850;6.970;2023-04-01T14:12:06;15.10;80.00
60313;DHT22;46158;52.850;6.970;2023-04-01T14:14:52;15.10;79.90
60313;DHT22;46158;52.850;6.970;2023-04-01T14:17:47;15.10;79.90
60313;DHT22;46158;52.850;6.970;2023-04-01T14:20:20;15.10;80.00
60313;DHT22;46158;52.850;6.970;2023-04-01T14:34:10;15.20;80.10
60313;DHT22;46158;52.850;6.970;2023-04-01T14:43:08;15.20;80.20
60313;DHT22;46158;52.850;6.970;2023-04-01T14:51:39;15.20;80.10
60313;DHT22;46158;52.850;6.970;2023-04-01T14:56:49;15.30;80.20
60313;DHT22;46158;52.850;6.970;2023-04-01T15:02:09;15.20;80.10
60313;DHT22;46158;52.850;6.970;2023-04-01T15:04:54;15.30;80.20
60313;DHT22;46158;52.850;6.970;2023-04-01T15:21:50;15.30;80.20
60313;DHT22;46158;52.850;6.970;2023-04-01T15:36:04;15.40;80.50
60313;DHT22;46158;52.850;6.970;2023-04-01T15:51:11;15.40;80.50
60313;DHT22;46158;52.850;6.970;2023-04-01T16:10:23;15.40;80.40
60313;DHT22;46158;52.850;6.970;2023-04-01T16:22:01;15.40;80.40
60313;DHT22;46158;52.850;6.970;2023-04-01T16:29:51;15.50;80.40
60313;DHT22;46158;52.850;6.970;2023-04-01T16:32:37;15.40;80.40
60313;DHT22;46158;52.850;6.970;2023-04-01T16:40:52;15.40;80.40
60313;DHT22;46158;52.850;6.970;2023-04-01T16:46:32;15.40;80.20
60313;DHT22;46158;52.850;6.970;2023-04-01T16:54:59;15.50;80.20
60313;DHT22;46158;52.850;6.970;2023-04-01T16:57:55;15.40;80.20
60313;DHT22;46158;52.850;6.970;2023-04-01T17:00:36;15.40;80.20
60313;DHT22;46158;52.850;6.970;2023-04-01T17:03:15;15.40;80.20
60313;DHT22;46158;52.850;6.970;2023-04-01T17:08:44;15.40;80.10
60313;DHT22;46158;52.850;6.970;2023-04-01T17:11:21;15.50;80.10
60313;DHT22;46158;52.850;6.970;2023-04-01T17:19:49;15.40;80.00
60313;DHT22;46158;52.850;6.970;2023-04-01T17:22:33;15.40;80.10
60313;DHT22;46158;52.850;6.970;2023-04-01T17:36:29;15.40;79.90
60313;DHT22;46158;52.850;6.970;2023-04-01T17:39:20;15.40;80.70
60313;DHT22;46158;52.850;6.970;2023-04-01T17:42:00;15.40;80.00
60313;DHT22;46158;52.850;6.970;2023-04-01T17:44:46;15.40;80.00
60313;DHT22;46158;52.850;6.970;2023-04-01T17:47:24;15.40;79.90
60313;DHT22;46158;52.850;6.970;2023-04-01T17:50:22;15.40;80.00
60313;DHT22;46158;52.850;6.970;2023-04-01T17:59:09;15.40;79.80
60313;DHT22;46158;52.850;6.970;2023-04-01T18:02:02;15.40;79.90
60313;DHT22;46158;52.850;6.970;2023-04-01T18:13:04;15.40;79.80
60313;DHT22;46158;52.850;6.970;2023-04-01T18:23:46;15.40;79.80
60313;DHT22;46158;52.850;6.970;2023-04-01T18:26:32;15.40;79.80
60313;DHT22;46158;52.850;6.970;2023-04-01T18:31:56;15.30;79.60
60313;DHT22;46158;52.850;6.970;2023-04-01T18:37:36;15.30;79.70
60313;DHT22;46158;52.850;6.970;2023-04-01T18:40:19;15.30;79.70
60313;DHT22;46158;52.850;6.970;2023-04-01T18:45:49;15.30;79.70
60313;DHT22;46158;52.850;6.970;2023-04-01T18:50:55;15.30;79.70
60313;DHT22;46158;52.850;6.970;2023-04-01T18:56:06;15.30;79.60
60313;DHT22;46158;52.850;6.970;2023-04-01T18:58:36;15.30;79.70
60313;DHT22;46158;52.850;6.970;2023-04-01T19:04:12;15.30;79.70
60313;DHT22;46158;52.850;6.970;2023-04-01T19:06:54;15.30;79.70
60313;DHT22;46158;52.850;6.970;2023-04-01T19:09:26;15.30;79.70
60313;DHT22;46158;52.850;6.970;2023-04-01T19:12:26;15.30;79.80
60313;DHT22;46158;52.850;6.970;2023-04-01T19:19:08;15.30;79.90
60313;DHT22;46158;52.850;6.970;2023-04-01T19:21:16;15.30;79.90
60313;DHT22;46158;52.850;6.970;2023-04-01T19:26:37;15.30;80.00
60313;DHT22;46158;52.850;6.970;2023-04-01T19:38:08;15.30;80.20
60313;DHT22;46158;52.850;6.970;2023-04-01T19:49:09;15.30;80.40
60313;DHT22;46158;52.850;6.970;2023-04-01T19:51:43;15.20;80.50
60313;DHT22;46158;52.850;6.970;2023-04-01T20:03:03;15.30;80.50
60313;DHT22;46158;52.850;6.970;2023-04-01T20:22:29;15.30;80.80
60313;DHT22;46158;52.850;6.970;2023-04-01T20:25:05;15.30;80.70
60313;DHT22;46158;52.850;6.970;2023-04-01T20:27:44;15.30;80.90
60313;DHT22;46158;52.850;6.970;2023-04-01T20:33:18;15.30;80.70
60313;DHT22;46158;52.850;6.970;2023-04-01T20:49:40;15.30;80.60
60313;DHT22;46158;52.850;6.970;2023-04-01T20:58:30;15.30;80.20
60313;DHT22;46158;52.850;6.970;2023-04-01T21:00:52;15.30;80.20
60313;DHT22;46158;52.850;6.970;2023-04-01T21:06:14;15.30;80.30
60313;DHT22;46158;52.850;6.970;2023-04-01T21:09:02;15.30;80.20
60313;DHT22;46158;52.850;6.970;2023-04-01T21:35:59;15.30;80.30
60313;DHT22;46158;52.850;6.970;2023-04-01T21:57:46;15.30;80.40
60313;DHT22;46158;52.850;6.970;2023-04-01T22:01:05;15.30;80.30
60313;DHT22;46158;52.850;6.970;2023-04-01T22:03:22;15.30;80.20
60313;DHT22;46158;52.850;6.970;2023-04-01T22:08:37;15.30;80.20
60313;DHT22;46158;52.850;6.970;2023-04-01T22:16:56;15.30;79.80
60313;DHT22;46158;52.850;6.970;2023-04-01T22:25:11;15.20;79.70
60313;DHT22;46158;52.850;6.970;2023-04-01T22:27:55;15.30;79.70
60313;DHT22;46158;52.850;6.970;2023-04-01T22:30:49;15.20;79.50
60313;DHT22;46158;52.850;6.970;2023-04-01T22:33:38;15.30;79.60
60313;DHT22;46158;52.850;6.970;2023-04-01T22:43:58;15.20;79.20
60313;DHT22;46158;52.850;6.970;2023-04-01T22:49:38;15.20;79.00
60313;DHT22;46158;52.850;6.970;2023-04-01T22:54:45;15.10;78.90
60313;DHT22;46158;52.850;6.970;2023-04-01T23:00:22;15.10;78.70
60313;DHT22;46158;52.850;6.970;2023-04-01T23:03:14;15.10;78.70
60313;DHT22;46158;52.850;6.970;2023-04-01T23:05:57;15.10;78.50
60313;DHT22;46158;52.850;6.970;2023-04-01T23:11:18;15.10;78.50
60313;DHT22;46158;52.850;6.970;2023-04-01T23:30:58;15.00;78.10
60313;DHT22;46158;52.850;6.970;2023-04-01T23:33:31;15.00;78.00
60313;DHT22;46158;52.850;6.970;2023-04-01T23:35:58;15.00;77.80
60313;DHT22;46158;52.850;6.970;2023-04-01T23:38:34;14.90;77.70
60313;DHT22;46158;52.850;6.970;2023-04-01T23:41:01;14.90;77.60
60313;DHT22;46158;52.850;6.970;2023-04-01T23:43:31;14.90;77.60
60313;DHT22;46158;52.850;6.970;2023-04-01T23:46:00;14.90;77.50
60313;DHT22;46158;52.850;6.970;2023-04-01T23:48:42;14.90;77.40
60313;DHT22;46158;52.850;6.970;2023-04-01T23:51:35;14.90;77.20
60313;DHT22;46158;52.850;6.970;2023-04-01T23:54:29;14.80;77.80
60313;DHT22;46158;52.850;6.970;2023-04-01T23:56:56;14.80;77.20
60313;DHT22;46158;52.850;6.970;2023-04-01T23:59:30;14.80;77.20
